Time;durP1;ratioP1;P1;durP2;ratioP2;P2;SDS_P1;SDS_P2;PMS_P1;PMS_P2;Temp;Humidity;BMP_temperature;BMP_pressure;BME280_temperature;BME280_humidity;BME280_pressure;Samples;Min_cycle;Max_cycle;Signal;HPM_P1;HPM_P2
2022/06/26 00:02:53;;;;;;;4.67;3.60;;;;;;;22.81;54.84;97679.84;8404326;28;20237;-77
2022/06/26 00:06:59;;;;;;;5.67;3.83;;;;;;;22.81;54.19;97681.66;8414597;28;20234;-78
2022/06/26 00:11:04;;;;;;;5.17;3.17;;;;;;;22.68;52.73;97686.50;8414711;28;20231;-77
2022/06/26 00:15:08;;;;;;;5.70;3.30;;;;;;;22.71;53.72;97686.16;8414452;28;20234;-78
2022/06/26 00:19:11;;;;;;;4.97;3.23;;;;;;;22.61;53.36;97688.88;8414057;28;20556;-78
2022/06/26 00:23:13;;;;;;;7.90;3.63;;;;;;;22.61;53.16;97691.53;8414438;28;20234;-78
2022/06/26 00:27:18;;;;;;;4.73;2.80;;;;;;;22.68;53.47;97689.94;8414297;28;20241;-78
2022/06/26 00:31:22;;;;;;;3.80;2.80;;;;;;;22.71;52.86;97692.28;8413654;28;20242;-77
2022/06/26 00:35:25;;;;;;;8.97;3.17;;;;;;;22.56;52.85;97707.81;8414128;28;20485;-77
2022/06/26 00:39:28;;;;;;;5.33;2.90;;;;;;;22.58;52.66;97712.94;8413753;28;20325;-77
2022/06/26 00:43:32;;;;;;;5.50;3.10;;;;;;;22.55;53.03;97708.78;8414061;28;20226;-77
2022/06/26 00:47:35;;;;;;;5.57;3.03;;;;;;;22.15;53.49;97712.63;8413933;28;20433;-77
2022/06/26 00:51:41;;;;;;;3.53;2.70;;;;;;;22.21;53.62;97719.13;8413744;28;20223;-77
2022/06/26 00:55:43;;;;;;;3.00;2.70;;;;;;;22.24;53.42;97719.66;8413905;28;20230;-77
2022/06/26 00:59:48;;;;;;;4.53;3.57;;;;;;;22.34;53.43;97718.81;8413610;28;20238;-77
2022/06/26 01:03:51;;;;;;;4.90;3.90;;;;;;;22.11;53.67;97726.25;8413691;28;20230;-78
2022/06/26 01:07:54;;;;;;;4.67;3.73;;;;;;;21.96;54.51;97729.38;8413324;28;20239;-78
2022/06/26 01:11:57;;;;;;;7.40;4.20;;;;;;;22.18;53.93;97724.66;8413540;28;20231;-77
2022/06/26 01:16:02;;;;;;;4.90;3.73;;;;;;;22.17;54.61;97717.75;8413326;28;20241;-78
2022/06/26 01:20:06;;;;;;;8.00;3.80;;;;;;;21.82;55.48;97720.13;8413365;28;20226;-77
2022/06/26 01:24:11;;;;;;;4.90;3.83;;;;;;;22.02;55.27;97723.50;8413484;28;20233;-77
2022/06/26 01:28:14;;;;;;;9.37;4.57;;;;;;;22.07;54.28;97717.81;8412834;28;20248;-78
2022/06/26 01:32:17;;;;;;;7.23;4.17;;;;;;;21.93;54.69;97723.56;8403877;28;20245;-78
2022/06/26 01:36:20;;;;;;;4.93;4.13;;;;;;;22.06;54.52;97724.88;8407188;28;20233;-77
2022/06/26 01:40:25;;;;;;;8.43;5.00;;;;;;;21.47;56.16;97726.06;8419032;28;20237;-77
2022/06/26 01:44:28;;;;;;;8.57;4.50;;;;;;;21.79;55.57;97723.06;8419608;28;20231;-77
2022/06/26 01:48:32;;;;;;;4.73;4.13;;;;;;;21.90;55.11;97721.22;8418857;28;20416;-77
2022/06/26 01:52:35;;;;;;;5.73;5.00;;;;;;;21.86;55.35;97733.88;8418802;28;20234;-77
2022/06/26 01:56:39;;;;;;;4.77;4.00;;;;;;;21.69;55.64;97732.81;8418621;28;20237;-77
2022/06/26 02:00:43;;;;;;;8.67;4.30;;;;;;;21.86;55.44;97729.41;8418572;28;20238;-78
2022/06/26 02:04:46;;;;;;;5.40;4.30;;;;;;;21.57;55.56;97716.34;8418778;28;20234;-77
2022/06/26 02:08:49;;;;;;;7.37;3.60;;;;;;;21.62;55.75;97729.09;8418333;28;20238;-77
2022/06/26 02:17:13;;;;;;;11.63;4.67;;;;;;;21.70;55.75;97738.91;8418452;28;20225;-77
2022/06/26 02:21:18;;;;;;;5.53;4.20;;;;;;;21.67;55.16;97735.59;8418336;28;20254;-77
2022/06/26 02:25:21;;;;;;;7.70;3.97;;;;;;;21.65;55.55;97731.44;8418225;28;20226;-77
2022/06/26 02:29:25;;;;;;;6.30;4.77;;;;;;;21.58;55.62;97736.44;8417480;28;20235;-77
2022/06/26 02:33:28;;;;;;;6.10;4.20;;;;;;;21.48;55.83;97738.28;8417854;28;20575;-77
2022/06/26 02:37:31;;;;;;;6.87;4.17;;;;;;;21.50;55.68;97738.97;8417740;28;20238;-77
2022/06/26 02:41:34;;;;;;;10.60;4.10;;;;;;;21.40;55.66;97733.69;8417535;28;20246;-77
2022/06/26 02:45:39;;;;;;;5.33;4.20;;;;;;;21.54;55.37;97739.50;8417052;28;20234;-77
2022/06/26 02:49:42;;;;;;;9.37;4.13;;;;;;;21.56;55.56;97751.56;8417308;28;20248;-77
2022/06/26 02:53:45;;;;;;;6.53;4.20;;;;;;;21.47;55.39;97753.22;8417214;28;20225;-77
2022/06/26 02:57:48;;;;;;;5.80;3.80;;;;;;;21.56;55.35;97751.56;8417238;28;20227;-77
2022/06/26 03:01:52;;;;;;;8.00;3.97;;;;;;;21.47;55.33;97755.88;8416892;28;20517;-77
2022/06/26 03:05:55;;;;;;;7.97;4.20;;;;;;;21.43;55.60;97753.63;8416720;28;20241;-77
2022/06/26 03:09:58;;;;;;;6.93;4.10;;;;;;;21.50;55.38;97757.41;8416520;28;20244;-77
2022/06/26 03:14:00;;;;;;;8.27;3.80;;;;;;;21.45;56.08;97759.63;8416630;28;20233;-77
2022/06/26 03:18:05;;;;;;;4.97;4.00;;;;;;;21.26;56.25;97758.63;8416478;28;20229;-77
2022/06/26 03:22:09;;;;;;;6.53;4.30;;;;;;;21.35;56.14;97764.06;8416494;28;20231;-77
2022/06/26 03:26:12;;;;;;;8.27;4.60;;;;;;;21.17;56.20;97754.25;8416039;28;20229;-76
2022/06/26 03:30:15;;;;;;;5.90;4.03;;;;;;;21.27;56.16;97757.69;8415563;28;20241;-77
2022/06/26 03:34:19;;;;;;;6.50;4.20;;;;;;;20.93;56.96;97753.84;8415904;28;20306;-77
2022/06/26 03:38:22;;;;;;;11.17;4.20;;;;;;;21.25;56.43;97759.63;8415151;28;20227;-76
2022/06/26 03:42:25;;;;;;;8.50;4.03;;;;;;;21.25;56.26;97764.91;8415510;28;20237;-77
2022/06/26 03:46:28;;;;;;;5.47;3.60;;;;;;;21.32;55.86;97764.31;8415440;28;20525;-77
2022/06/26 03:50:33;;;;;;;7.53;3.67;;;;;;;21.14;56.25;97774.75;8415339;28;20336;-77
2022/06/26 03:54:36;;;;;;;5.77;3.83;;;;;;;21.12;56.08;97769.63;8414474;28;20233;-77
2022/06/26 03:58:39;;;;;;;7.60;3.50;;;;;;;21.22;55.57;97775.69;8415106;28;20230;-77
2022/06/26 04:02:42;;;;;;;6.97;3.67;;;;;;;21.31;55.61;97774.03;8414878;28;20246;-77
2022/06/26 04:06:46;;;;;;;11.80;3.60;;;;;;;20.88;56.87;97785.81;8414898;28;20397;-77
2022/06/26 04:10:50;;;;;;;4.70;3.53;;;;;;;20.86;56.78;97785.94;8414694;28;20421;-77
2022/06/26 04:14:53;;;;;;;6.87;3.37;;;;;;;21.12;55.95;97785.41;8414815;28;20304;-77
2022/06/26 04:18:56;;;;;;;12.30;4.00;;;;;;;21.10;56.11;97784.72;8414604;28;20234;-77
2022/06/26 04:23:02;;;;;;;8.87;3.67;;;;;;;21.03;56.38;97775.72;8414432;28;20234;-77
2022/06/26 04:27:06;;;;;;;8.80;3.40;;;;;;;21.26;56.12;97781.50;8414202;28;20233;-77
2022/06/26 04:31:09;;;;;;;5.47;3.60;;;;;;;20.68;57.50;97787.59;8414327;28;20238;-77
2022/06/26 04:35:12;;;;;;;7.37;3.73;;;;;;;21.18;56.25;97791.94;8414422;28;20248;-78
2022/06/26 04:39:17;;;;;;;7.83;4.20;;;;;;;21.08;56.19;97802.47;8413879;28;20533;-77
2022/06/26 04:43:20;;;;;;;4.63;3.97;;;;;;;21.29;56.09;97792.59;8414152;28;20233;-78
2022/06/26 04:47:23;;;;;;;5.30;4.10;;;;;;;21.26;55.78;97784.16;8413249;28;20237;-76
2022/06/26 04:51:26;;;;;;;9.50;4.07;;;;;;;20.63;58.00;97782.72;8413623;28;20242;-77
2022/06/26 04:55:30;;;;;;;4.43;3.93;;;;;;;20.79;57.43;97784.84;8413850;28;20535;-77
2022/06/26 04:59:33;;;;;;;7.73;4.00;;;;;;;20.79;57.62;97776.97;8413530;28;20233;-77
2022/06/26 05:03:36;;;;;;;9.87;4.37;;;;;;;20.44;58.75;97783.50;8413600;28;20413;-76
2022/06/26 05:07:41;;;;;;;6.50;4.07;;;;;;;20.44;58.50;97783.50;8421465;28;20316;-77
2022/06/26 05:11:45;;;;;;;4.83;3.60;;;;;;;20.73;57.89;97782.75;8424529;28;20237;-77
2022/06/26 05:15:48;;;;;;;6.20;3.63;;;;;;;20.98;57.40;97794.56;8424675;28;20405;-76
2022/06/26 05:19:51;;;;;;;7.47;3.90;;;;;;;21.35;56.43;97793.84;8424305;28;20226;-76
2022/06/26 05:23:53;;;;;;;7.63;3.97;;;;;;;20.97;57.39;97799.97;8424545;28;20420;-76
2022/06/26 05:27:58;;;;;;;5.43;3.57;;;;;;;21.32;56.41;97799.38;8424271;28;20224;-77
2022/06/26 05:32:01;;;;;;;6.53;3.47;;;;;;;21.41;56.69;97792.47;8424276;28;20253;-77
2022/06/26 05:36:06;;;;;;;5.37;3.20;;;;;;;21.46;56.42;97796.38;8424263;28;20336;-77
2022/06/26 05:40:09;;;;;;;5.83;3.10;;;;;;;21.65;55.98;97802.59;8424276;28;20232;-77
2022/06/26 05:44:14;;;;;;;5.33;3.00;;;;;;;22.05;54.78;97802.31;8424047;28;20230;-77
2022/06/26 05:48:16;;;;;;;3.73;2.70;;;;;;;22.16;54.04;97797.81;8424013;28;20524;-77
2022/06/26 05:52:19;;;;;;;5.87;2.70;;;;;;;22.16;53.97;97795.19;8424060;28;20248;-77
2022/06/26 05:56:22;;;;;;;4.37;2.63;;;;;;;22.06;53.83;97803.97;8423675;28;20218;-76
2022/06/26 06:00:27;;;;;;;3.10;2.37;;;;;;;22.46;53.59;97809.94;8424037;28;20240;-76
2022/06/26 06:04:30;;;;;;;4.27;2.50;;;;;;;22.57;53.26;97801.00;8423885;28;20257;-77
2022/06/26 06:08:32;;;;;;;6.77;3.00;;;;;;;22.53;54.31;97808.38;8423670;28;20245;-74
2022/06/26 06:12:36;;;;;;;5.20;3.80;;;;;;;22.68;54.20;97805.25;8423710;28;20299;-78
2022/06/26 06:16:40;;;;;;;7.43;3.17;;;;;;;22.61;54.19;97812.91;8422910;28;20237;-78
2022/06/26 06:20:45;;;;;;;3.57;2.60;;;;;;;22.84;53.29;97813.34;8418295;28;20543;-77
2022/06/26 06:25:09;;;;;;;4.33;2.73;;;;;;;23.08;53.66;97810.13;8418189;28;20230;-78
2022/06/26 06:29:18;;;;;;;4.70;2.87;;;;;;;22.94;53.76;97808.84;8418200;28;20232;-77
2022/06/26 06:33:22;;;;;;;4.03;2.70;;;;;;;23.05;53.73;97812.25;8417797;28;20237;-79
2022/06/26 06:37:24;;;;;;;3.00;2.70;;;;;;;23.45;53.25;97822.34;8417374;28;20237;-80
2022/06/26 06:41:27;;;;;;;2.83;2.40;;;;;;;23.56;52.42;97829.19;8417584;28;20318;-76
2022/06/26 06:45:30;;;;;;;5.13;2.30;;;;;;;23.87;51.30;97836.72;8418155;28;20231;-78
2022/06/26 06:49:34;;;;;;;5.77;3.00;;;;;;;23.85;50.81;97834.22;8418193;28;20503;-84
2022/06/26 06:53:37;;;;;;;7.10;2.43;;;;;;;23.88;50.12;97836.56;8417470;28;20238;-82
2022/06/26 06:57:40;;;;;;;4.10;2.20;;;;;;;24.00;49.64;97832.66;8417693;28;20251;-82
2022/06/26 07:01:42;;;;;;;2.97;2.23;;;;;;;24.13;49.80;97831.44;8416974;28;20238;-84
2022/06/26 07:05:47;;;;;;;2.53;2.17;;;;;;;24.43;48.76;97829.22;8417044;28;20272;-82
2022/06/26 07:09:50;;;;;;;2.80;1.60;;;;;;;24.71;48.45;97840.47;8416821;28;20227;-83
2022/06/26 07:13:52;;;;;;;3.43;1.77;;;;;;;24.74;47.76;97837.50;8416741;28;20223;-83
2022/06/26 07:17:55;;;;;;;1.53;1.43;;;;;;;25.02;47.12;97834.56;8416549;28;20228;-84
2022/06/26 07:21:59;;;;;;;4.27;2.23;;;;;;;25.19;47.27;97833.63;8416555;28;20518;-82
2022/06/26 07:26:02;;;;;;;2.83;1.60;;;;;;;25.20;46.16;97834.44;8416278;28;20240;-83
2022/06/26 07:30:06;;;;;;;4.70;1.70;;;;;;;25.14;45.96;97822.69;8414827;28;20247;-83
2022/06/26 07:34:16;;;;;;;5.53;1.73;;;;;;;25.46;46.34;97821.09;8415962;28;20235;-83
2022/06/26 07:38:20;;;;;;;2.00;1.60;;;;;;;25.94;44.61;97828.16;8415815;28;20323;-83
2022/06/26 07:42:24;;;;;;;1.60;1.50;;;;;;;26.21;44.83;97827.94;8415292;28;20228;-82
2022/06/26 07:46:27;;;;;;;2.27;1.40;;;;;;;26.46;43.94;97839.28;8415197;28;20563;-83
2022/06/26 07:50:30;;;;;;;3.90;1.33;;;;;;;26.74;43.31;97846.84;8415291;28;20334;-83
2022/06/26 07:54:34;;;;;;;3.23;1.40;;;;;;;26.88;41.45;97846.94;8415370;28;20511;-83
2022/06/26 07:58:37;;;;;;;1.63;1.27;;;;;;;26.96;42.30;97845.22;8415257;28;20228;-83
2022/06/26 08:02:40;;;;;;;4.17;1.47;;;;;;;27.16;41.38;97835.81;8414845;28;20423;-83
2022/06/26 08:06:42;;;;;;;3.27;1.30;;;;;;;27.42;40.08;97842.63;8414801;28;20244;-83
2022/06/26 08:10:47;;;;;;;2.43;1.40;;;;;;;27.39;39.54;97833.16;8414845;28;20513;-83
2022/06/26 08:14:49;;;;;;;1.93;1.30;;;;;;;27.63;39.74;97826.81;8414833;28;20279;-84
2022/06/26 08:18:52;;;;;;;3.27;1.37;;;;;;;27.90;39.47;97824.59;8414421;28;20230;-83
2022/06/26 08:23:00;;;;;;;4.13;2.33;;;;;;;27.99;38.71;97818.19;8414653;28;20287;-83
2022/06/26 08:27:05;;;;;;;6.07;1.10;;;;;;;27.90;38.93;97807.81;8392499;28;20235;-86
2022/06/26 08:31:08;;;;;;;1.23;1.10;;;;;;;28.10;38.69;97814.22;8381411;28;20556;-84
2022/06/26 08:35:13;;;;;;;4.17;0.90;;;;;;;27.94;36.93;97817.91;8381415;28;20226;-84
2022/06/26 08:39:15;;;;;;;2.70;1.23;;;;;;;27.55;37.55;97810.94;8382657;28;20242;-83
2022/06/26 08:43:22;;;;;;;2.17;1.03;;;;;;;28.10;37.24;97819.56;8380844;28;20228;-85
2022/06/26 08:47:33;;;;;;;2.87;1.10;;;;;;;28.22;36.83;97811.97;8380488;28;20520;-86
2022/06/26 08:51:38;;;;;;;1.20;1.10;;;;;;;28.62;37.00;97813.31;8382125;28;20237;-83
2022/06/26 08:55:41;;;;;;;9.20;1.10;;;;;;;28.71;35.63;97808.72;8380713;28;20230;-82
2022/06/26 08:59:45;;;;;;;4.27;1.10;;;;;;;28.84;36.08;97813.34;8380744;28;20397;-82
2022/06/26 09:03:48;;;;;;;1.10;0.90;;;;;;;29.07;35.97;97815.03;8407944;28;20228;-83
2022/06/26 09:07:52;;;;;;;1.47;1.10;;;;;;;29.47;34.43;97818.09;8415419;28;20240;-85
2022/06/26 09:11:57;;;;;;;2.87;0.90;;;;;;;29.05;35.87;97818.72;8414975;28;20232;-84
2022/06/26 09:16:01;;;;;;;2.90;0.80;;;;;;;29.30;35.67;97812.19;8413747;28;20241;-84
2022/06/26 09:20:08;;;;;;;0.90;0.80;;;;;;;29.67;33.40;97811.06;8413846;28;20245;-88
2022/06/26 09:24:12;;;;;;;1.33;0.90;;;;;;;30.15;33.02;97821.06;8415628;28;20219;-84
2022/06/26 09:28:17;;;;;;;1.17;0.73;;;;;;;29.70;31.94;97812.53;8414155;28;20236;-83
2022/06/26 09:32:23;;;;;;;0.90;0.70;;;;;;;30.25;32.13;97812.69;8413609;28;20238;-82
2022/06/26 09:36:26;;;;;;;1.73;0.80;;;;;;;30.12;32.43;97808.94;8412970;28;20233;-85
2022/06/26 09:40:28;;;;;;;1.37;0.63;;;;;;;29.99;30.47;97803.53;8413433;28;20518;-85
2022/06/26 09:44:31;;;;;;;1.53;0.70;;;;;;;30.55;31.36;97794.56;8413837;28;20227;-86
2022/06/26 09:48:36;;;;;;;1.17;0.70;;;;;;;30.64;31.57;97812.09;8413233;28;20239;-85
2022/06/26 09:52:39;;;;;;;1.47;0.80;;;;;;;30.83;29.46;97807.84;8413222;28;20348;-85
2022/06/26 09:56:43;;;;;;;0.93;0.70;;;;;;;31.06;31.11;97810.19;8386172;28;20230;-86
2022/06/26 10:06:25;;;;;;;1.13;0.77;;;;;;;30.95;29.79;97808.09;8388199;28;20233;-84
2022/06/26 10:09:35;;;;;;;1.47;0.87;;;;;;;31.33;29.10;97797.66;8418445;28;20235;-82
2022/06/26 10:13:39;;;;;;;6.53;0.90;;;;;;;31.59;31.46;97805.91;8418500;28;20233;-82
2022/06/26 10:17:51;;;;;;;2.10;0.77;;;;;;;31.28;28.54;97801.97;8418671;28;20245;-82
2022/06/26 10:21:55;;;;;;;1.80;0.93;;;;;;;31.17;29.62;97798.06;8418749;28;20232;-82
2022/06/26 10:25:58;;;;;;;4.50;1.00;;;;;;;30.84;29.66;97801.44;8418584;28;20225;-82
2022/06/26 10:30:07;;;;;;;1.40;1.00;;;;;;;30.92;29.24;97798.63;8418458;28;20261;-82
2022/06/26 10:34:11;;;;;;;1.40;0.97;;;;;;;31.06;29.99;97798.66;8418237;28;20586;-82
2022/06/26 10:38:25;;;;;;;1.23;1.10;;;;;;;31.31;29.70;97789.00;8418215;28;20229;-82
2022/06/26 10:46:56;;;;;;;1.57;1.10;;;;;;;31.45;29.13;97771.09;8417772;28;20227;-82
2022/06/26 10:51:01;;;;;;;2.30;0.90;;;;;;;32.14;28.86;97769.81;8417497;28;20234;-79
2022/06/26 10:55:08;;;;;;;2.60;0.80;;;;;;;31.73;28.24;97776.25;8417624;28;20237;-79
2022/06/26 10:59:11;;;;;;;1.83;1.00;;;;;;;30.95;29.87;97778.69;8417229;28;20305;-79
2022/06/26 11:03:15;;;;;;;1.17;0.83;;;;;;;31.98;29.40;97772.91;8416830;28;20243;-79
2022/06/26 11:07:19;;;;;;;1.43;0.90;;;;;;;32.15;28.55;97766.09;8416863;28;20310;-79
2022/06/26 11:11:30;;;;;;;1.93;0.70;;;;;;;32.08;29.05;97765.31;8416400;28;20243;-78
2022/06/26 11:15:33;;;;;;;1.53;0.80;;;;;;;32.59;27.33;97763.66;8416701;28;20234;-79
2022/06/26 11:20:46;;;;;;;0.70;0.70;;;;;;;32.66;26.91;97763.66;8416673;28;20556;-78
2022/06/26 11:24:01;;;;;;;2.87;0.70;;;;;;;32.37;28.78;97756.94;8416360;28;20250;-78
2022/06/26 11:28:08;;;;;;;3.03;0.80;;;;;;;31.81;29.33;97761.81;8416555;28;20431;-78
2022/06/26 11:32:11;;;;;;;1.67;0.80;;;;;;;31.20;29.56;97754.03;8416217;28;20236;-78
2022/06/26 11:36:16;;;;;;;1.87;0.77;;;;;;;31.66;29.18;97755.88;8415907;28;20243;-78
2022/06/26 11:40:21;;;;;;;3.50;0.80;;;;;;;32.06;27.13;97756.66;8415958;28;20232;-78
2022/06/26 11:44:25;;;;;;;1.23;0.80;;;;;;;32.36;28.39;97756.13;8415424;28;20518;-78
2022/06/26 11:48:29;;;;;;;1.63;0.60;;;;;;;32.84;28.21;97760.22;8415307;28;20238;-78
2022/06/26 11:52:32;;;;;;;3.47;0.90;;;;;;;32.40;26.64;97757.34;8415554;28;20242;-78
2022/06/26 11:56:35;;;;;;;3.00;0.80;;;;;;;32.79;26.52;97752.84;8415263;28;20243;-77
2022/06/26 12:00:39;;;;;;;0.77;0.70;;;;;;;32.99;26.84;97758.06;8415284;28;20232;-78
2022/06/26 12:04:41;;;;;;;2.07;0.60;;;;;;;33.05;26.89;97749.19;8415218;28;20517;-77
2022/06/26 12:08:47;;;;;;;1.37;0.70;;;;;;;33.36;27.38;97742.16;8414988;28;20240;-78
2022/06/26 12:12:50;;;;;;;0.93;0.67;;;;;;;33.15;27.29;97740.66;8414847;28;20521;-79
2022/06/26 12:16:55;;;;;;;1.00;0.67;;;;;;;33.38;27.72;97741.94;8414393;28;20265;-79
2022/06/26 12:20:58;;;;;;;0.90;0.77;;;;;;;33.04;25.41;97739.47;8414921;28;20359;-78
2022/06/26 12:25:02;;;;;;;1.15;0.73;;;;;;;32.04;26.61;97739.97;8414759;28;20539;-78
2022/06/26 12:29:10;;;;;;;1.77;0.70;;;;;;;31.00;28.11;97738.81;8414614;28;20235;-78
2022/06/26 12:33:14;;;;;;;1.63;0.80;;;;;;;32.40;27.22;97733.22;8414212;28;20434;-78
2022/06/26 12:37:17;;;;;;;1.50;0.60;;;;;;;32.73;26.77;97725.03;8414238;28;20242;-78
2022/06/26 12:41:20;;;;;;;3.37;0.80;;;;;;;32.56;27.22;97726.56;8414184;28;20233;-78
2022/06/26 12:45:23;;;;;;;1.27;0.80;;;;;;;32.46;26.14;97721.69;8413690;28;20233;-77
2022/06/26 12:49:27;;;;;;;1.07;0.70;;;;;;;33.00;27.11;97713.31;8413816;28;20229;-78
2022/06/26 12:53:30;;;;;;;1.13;0.70;;;;;;;33.16;26.97;97711.97;8413891;28;20248;-77
2022/06/26 12:57:33;;;;;;;1.13;0.80;;;;;;;32.85;25.56;97710.94;8413943;28;20238;-78
2022/06/26 13:01:36;;;;;;;1.30;0.80;;;;;;;32.86;24.89;97700.00;8413786;28;20233;-78
2022/06/26 13:05:40;;;;;;;3.10;0.80;;;;;;;32.85;25.07;97698.34;8412731;28;20238;-79
2022/06/26 13:09:43;;;;;;;1.00;0.60;;;;;;;33.20;25.67;97699.75;8383240;28;20234;-78
2022/06/26 13:13:46;;;;;;;2.50;0.90;;;;;;;33.41;26.22;97703.91;8380665;28;20274;-78
2022/06/26 13:18:09;;;;;;;1.07;0.80;;;;;;;33.60;26.62;97707.44;8380376;28;20247;-77
2022/06/26 13:22:13;;;;;;;1.70;0.80;;;;;;;33.59;26.97;97703.94;8380398;28;20227;-78
2022/06/26 13:26:16;;;;;;;2.00;0.90;;;;;;;33.35;26.46;97694.88;8381108;28;20234;-78
2022/06/26 13:30:19;;;;;;;2.20;0.80;;;;;;;33.40;27.19;97687.00;8386984;28;20234;-78
2022/06/26 13:34:21;;;;;;;0.83;0.60;;;;;;;33.58;25.86;97688.06;8386714;28;20240;-77
2022/06/26 13:38:26;;;;;;;1.83;0.70;;;;;;;33.18;24.48;97689.25;8386622;28;20238;-77
2022/06/26 13:42:29;;;;;;;1.67;0.90;;;;;;;33.16;24.63;97691.31;8386639;28;20234;-80
2022/06/26 13:46:32;;;;;;;2.95;0.73;;;;;;;33.61;24.67;97684.94;8386737;28;20245;-76
2022/06/26 13:50:35;;;;;;;4.43;0.87;;;;;;;33.67;24.46;97676.81;8386520;28;20548;-76
2022/06/26 13:54:39;;;;;;;1.73;0.80;;;;;;;33.75;23.85;97662.28;8386196;28;20430;-76
2022/06/26 13:58:42;;;;;;;1.27;0.70;;;;;;;33.17;25.79;97660.78;8385949;28;20246;-77
2022/06/26 14:02:45;;;;;;;1.75;0.80;;;;;;;33.30;26.83;97660.66;8404488;28;20234;-79
2022/06/26 14:06:47;;;;;;;2.08;0.77;;;;;;;32.65;26.62;97676.22;8418944;28;20245;-77
2022/06/26 14:10:52;;;;;;;1.10;0.73;;;;;;;32.58;26.94;97675.44;8419082;28;20219;-77
2022/06/26 14:14:55;;;;;;;1.10;0.80;;;;;;;31.40;27.65;97665.72;8418776;28;20233;-77
2022/06/26 14:18:58;;;;;;;1.77;1.00;;;;;;;32.81;28.66;97680.25;8418799;28;20236;-77
2022/06/26 14:27:23;;;;;;;1.13;0.90;;;;;;;32.46;27.03;97672.59;8418499;28;20507;-76
2022/06/26 14:31:27;;;;;;;1.13;1.00;;;;;;;32.08;27.27;97673.41;8417934;28;20234;-77
2022/06/26 14:35:50;;;;;;;1.37;0.90;;;;;;;31.86;28.79;97660.28;8417817;28;20255;-79
2022/06/26 14:39:53;;;;;;;1.50;0.97;;;;;;;32.45;27.31;97654.91;8417070;28;20301;-79
2022/06/26 14:43:57;;;;;;;2.10;0.80;;;;;;;31.83;26.97;97651.88;8417302;28;20235;-78
2022/06/26 14:48:00;;;;;;;2.50;0.90;;;;;;;31.33;29.17;97644.34;8400531;28;20227;-79
2022/06/26 14:52:02;;;;;;;5.17;1.20;;;;;;;31.49;28.79;97646.63;8397646;28;20221;-78
2022/06/26 14:56:05;;;;;;;2.10;0.87;;;;;;;31.48;30.00;97650.31;8400217;28;20251;-77
2022/06/26 15:00:11;;;;;;;0.80;0.80;;;;;;;31.21;29.40;97644.19;8400161;28;20228;-78
2022/06/26 15:04:15;;;;;;;1.33;0.67;;;;;;;31.08;30.36;97645.00;8401962;28;20241;-78
2022/06/26 15:08:18;;;;;;;0.93;0.80;;;;;;;31.54;28.37;97646.00;8398303;28;20368;-78
2022/06/26 15:12:21;;;;;;;1.47;0.80;;;;;;;31.48;30.24;97649.50;8398234;28;20416;-78
2022/06/26 15:16:25;;;;;;;1.20;1.07;;;;;;;31.74;28.39;97636.03;8398733;28;20233;-77
2022/06/26 15:20:28;;;;;;;2.10;0.90;;;;;;;31.83;29.52;97641.97;8400702;28;20226;-78
2022/06/26 15:24:31;;;;;;;2.83;1.00;;;;;;;31.92;29.83;97630.00;8397095;28;20232;-78
2022/06/26 15:28:34;;;;;;;0.70;0.70;;;;;;;31.98;29.74;97627.50;8399161;28;20220;-77
2022/06/26 15:32:38;;;;;;;0.70;0.70;;;;;;;32.04;28.64;97622.13;8400912;28;20230;-76
2022/06/26 15:36:41;;;;;;;1.13;0.97;;;;;;;31.91;29.43;97624.84;8398868;28;23902;-77
2022/06/26 15:40:44;;;;;;;1.53;1.13;;;;;;;31.13;28.40;97622.97;8397623;28;20230;-77
2022/06/26 15:44:47;;;;;;;0.90;0.80;;;;;;;31.54;30.13;97622.72;8398367;28;20233;-76
2022/06/26 15:48:51;;;;;;;0.70;0.70;;;;;;;31.50;28.51;97608.13;8398790;28;20550;-77
2022/06/26 15:52:54;;;;;;;1.53;0.93;;;;;;;31.50;29.68;97618.00;8395099;28;20232;-77
2022/06/26 15:56:57;;;;;;;1.17;0.93;;;;;;;31.52;28.92;97616.75;8397785;28;20224;-77
2022/06/26 16:01:02;;;;;;;2.43;1.10;;;;;;;31.53;29.28;97613.06;8401357;28;20229;-77
2022/06/26 16:05:08;;;;;;;1.30;0.73;;;;;;;31.64;29.32;97608.88;8395619;28;20564;-77
2022/06/26 16:09:11;;;;;;;2.33;0.90;;;;;;;31.70;30.04;97599.19;8399200;28;20230;-78
2022/06/26 16:13:13;;;;;;;1.63;1.03;;;;;;;31.42;28.89;97597.63;8399379;28;20236;-78
2022/06/26 16:17:33;;;;;;;2.10;1.10;;;;;;;31.48;29.38;97591.47;8397012;28;20228;-78
2022/06/26 16:21:37;;;;;;;1.00;0.80;;;;;;;31.39;28.92;97582.00;8381841;28;20549;-78
2022/06/26 16:30:00;;;;;;;2.77;0.80;;;;;;;31.28;28.40;97580.81;8414913;28;20400;-76
2022/06/26 16:34:03;;;;;;;1.57;0.70;;;;;;;31.38;27.95;97573.16;8414649;28;20234;-77
2022/06/26 16:38:07;;;;;;;2.87;0.90;;;;;;;31.25;28.52;97575.06;8414890;28;20238;-78
2022/06/26 16:42:10;;;;;;;2.07;1.80;;;;;;;31.01;27.88;97579.19;8413927;28;20233;-77
2022/06/26 16:46:13;;;;;;;2.13;0.90;;;;;;;31.00;28.13;97578.38;8391414;28;20233;-78
2022/06/26 16:50:17;;;;;;;2.10;0.80;;;;;;;30.92;28.88;97574.09;8381657;28;20233;-78
2022/06/26 16:54:22;;;;;;;1.83;0.87;;;;;;;31.08;29.78;97574.66;8380922;28;20237;-81
2022/06/26 16:58:26;;;;;;;2.20;1.17;;;;;;;31.11;29.93;97568.88;8380368;28;20237;-81
2022/06/26 17:02:29;;;;;;;1.00;0.90;;;;;;;30.99;29.25;97566.84;8396931;28;20231;-77
2022/06/26 17:06:31;;;;;;;2.17;0.90;;;;;;;30.99;28.63;97568.72;8403756;28;20249;-82
2022/06/26 17:10:36;;;;;;;1.90;0.80;;;;;;;30.94;29.31;97577.38;8383137;28;20227;-78
2022/06/26 17:14:39;;;;;;;1.87;1.00;;;;;;;30.71;28.57;97572.44;8380272;28;20248;-78
2022/06/26 17:18:42;;;;;;;1.77;1.00;;;;;;;30.73;30.44;97569.53;8380587;28;20237;-77
2022/06/26 17:22:45;;;;;;;2.00;1.37;;;;;;;30.67;30.07;97573.84;8379768;28;20254;-78
2022/06/26 17:26:50;;;;;;;1.17;1.00;;;;;;;30.62;30.34;97572.84;8379487;28;20227;-78
2022/06/26 17:30:52;;;;;;;2.83;1.00;;;;;;;30.49;30.43;97574.47;8380197;28;20388;-78
2022/06/26 17:34:55;;;;;;;3.17;1.10;;;;;;;30.44;31.08;97581.44;8379643;28;20236;-80
2022/06/26 17:38:58;;;;;;;2.53;1.00;;;;;;;30.38;31.17;97567.88;8379895;28;20227;-82
2022/06/26 17:43:03;;;;;;;1.20;0.80;;;;;;;30.32;31.91;97567.88;8394459;28;20231;-77
2022/06/26 17:51:27;;;;;;;1.63;0.93;;;;;;;30.15;30.53;97568.22;8379214;28;20287;-77
2022/06/26 17:55:30;;;;;;;0.97;0.80;;;;;;;30.11;31.07;97568.84;8379388;28;20236;-78
2022/06/26 17:59:34;;;;;;;2.73;0.90;;;;;;;30.13;31.54;97574.81;8379601;28;20233;-77
2022/06/26 18:03:37;;;;;;;3.77;0.80;;;;;;;30.07;32.42;97573.75;8405416;28;20241;-78
2022/06/26 18:07:40;;;;;;;1.67;0.90;;;;;;;29.93;31.48;97567.56;8412519;28;20230;-76
2022/06/26 18:11:44;;;;;;;1.43;0.93;;;;;;;29.94;31.96;97568.41;8412352;28;20236;-77
2022/06/26 18:15:48;;;;;;;0.90;0.80;;;;;;;29.91;32.42;97563.44;8416651;28;20232;-77
2022/06/26 18:19:51;;;;;;;2.40;1.13;;;;;;;29.88;32.11;97575.34;8418338;28;20228;-77
2022/06/26 18:23:54;;;;;;;1.97;1.10;;;;;;;29.82;32.63;97574.31;8418279;28;20237;-81
2022/06/26 18:27:57;;;;;;;1.57;1.17;;;;;;;29.80;32.82;97583.56;8417955;28;20230;-78
2022/06/26 18:32:02;;;;;;;1.30;1.00;;;;;;;29.68;33.04;97577.91;8403572;28;20319;-77
2022/06/26 18:36:05;;;;;;;3.93;1.20;;;;;;;29.63;33.69;97588.38;8400592;28;20228;-77
2022/06/26 18:40:10;;;;;;;1.20;0.90;;;;;;;29.62;33.35;97582.22;8414898;28;20499;-77
2022/06/26 18:44:12;;;;;;;1.03;0.90;;;;;;;29.52;34.69;97584.41;8417610;28;20234;-76
2022/06/26 18:48:17;;;;;;;0.90;0.90;;;;;;;29.46;35.00;97573.72;8417577;28;20235;-78
2022/06/26 18:52:20;;;;;;;1.33;1.00;;;;;;;29.34;35.22;97574.28;8417417;28;20231;-77
2022/06/26 18:56:23;;;;;;;2.20;1.00;;;;;;;29.33;35.09;97575.31;8416801;28;20239;-76
2022/06/26 19:00:26;;;;;;;1.33;0.90;;;;;;;29.26;35.05;97573.63;8399102;28;20241;-77
2022/06/26 19:04:31;;;;;;;2.60;1.10;;;;;;;29.22;35.42;97578.50;8402349;28;20423;-77
2022/06/26 19:08:57;;;;;;;1.40;1.20;;;;;;;29.14;35.77;97576.00;8399531;28;20577;-77
2022/06/26 19:17:23;;;;;;;2.57;2.07;;;;;;;28.96;36.16;97579.97;8398097;28;20231;-77
2022/06/26 19:21:28;;;;;;;2.03;1.50;;;;;;;28.93;35.56;97588.34;8399016;28;20416;-77
2022/06/26 19:25:31;;;;;;;2.03;1.57;;;;;;;28.83;36.33;97588.69;8399678;28;20225;-77
2022/06/26 19:29:34;;;;;;;3.47;1.57;;;;;;;28.75;36.72;97588.00;8399198;28;20401;-77
2022/06/26 19:33:37;;;;;;;2.20;1.60;;;;;;;28.66;37.75;97588.16;8398901;28;20224;-77
2022/06/26 19:37:43;;;;;;;4.77;2.40;;;;;;;28.57;37.98;97585.81;8398693;28;20249;-77
2022/06/26 19:41:46;;;;;;;1.70;1.50;;;;;;;28.56;37.67;97586.81;8395879;28;20232;-77